createdAt,value
2019-06-15T00:00:36.523Z,6.30
2019-06-15T00:01:36.520Z,6.40
2019-06-15T00:02:36.500Z,6.20
2019-06-15T00:03:36.505Z,6.80
2019-06-15T00:04:36.525Z,6.30
2019-06-15T00:05:36.465Z,6.50
2019-06-15T00:06:36.457Z,6.40
2019-06-15T00:07:36.442Z,6.40
2019-06-15T00:08:36.434Z,7.00
2019-06-15T00:09:36.433Z,6.90
2019-06-15T00:10:36.435Z,6.40
2019-06-15T00:11:36.402Z,6.60
2019-06-15T00:12:36.391Z,6.40
2019-06-15T00:13:36.378Z,6.70
2019-06-15T00:14:36.383Z,6.40
2019-06-15T00:15:36.354Z,6.60
2019-06-15T00:16:36.370Z,6.30
2019-06-15T00:17:36.336Z,6.70
2019-06-15T00:18:36.335Z,6.70
2019-06-15T00:19:36.311Z,6.70
2019-06-15T00:20:36.299Z,6.90
2019-06-15T00:21:36.293Z,7.10
2019-06-15T00:22:36.293Z,7.30
2019-06-15T00:23:36.278Z,6.80
2019-06-15T00:24:36.263Z,6.70
2019-06-15T00:25:36.244Z,6.70
2019-06-15T00:26:36.232Z,6.80
2019-06-15T00:27:36.222Z,7.20
2019-06-15T00:28:36.265Z,7.30
2019-06-15T00:29:36.201Z,7.70
2019-06-15T00:30:36.194Z,7.80
2019-06-15T00:31:36.179Z,7.20
2019-06-15T00:32:36.167Z,7.30
2019-06-15T00:33:36.173Z,8.00
2019-06-15T00:34:36.188Z,8.20
2019-06-15T00:35:36.135Z,8.50
2019-06-15T00:36:36.122Z,8.70
2019-06-15T00:37:36.118Z,8.40
2019-06-15T00:38:36.101Z,8.20
2019-06-15T00:39:36.114Z,9.00
2019-06-15T00:40:36.104Z,9.30
2019-06-15T00:41:36.068Z,8.90
2019-06-15T00:42:36.056Z,9.10
2019-06-15T00:43:36.045Z,9.30
2019-06-15T00:44:36.043Z,9.30
2019-06-15T00:45:36.043Z,9.90
2019-06-15T00:46:36.043Z,10.00
2019-06-15T00:47:36.001Z,9.70
2019-06-15T00:48:35.990Z,9.80
2019-06-15T00:49:35.979Z,9.30
2019-06-15T00:50:35.974Z,9.80
2019-06-15T00:51:35.971Z,9.90
2019-06-15T00:52:35.961Z,10.20
2019-06-15T00:53:35.947Z,10.80
2019-06-15T00:54:47.358Z,10.40
2019-06-15T00:55:36.917Z,10.10
2019-06-15T00:56:35.902Z,11.40
2019-06-15T00:57:35.903Z,10.00
2019-06-15T00:58:35.894Z,11.10
2019-06-15T00:59:35.872Z,11.00
2019-06-15T01:00:35.896Z,11.30
2019-06-15T01:01:35.850Z,11.40
2019-06-15T01:02:35.855Z,10.80
2019-06-15T01:03:35.856Z,10.80
2019-06-15T01:04:35.843Z,11.20
2019-06-15T01:05:35.817Z,11.20
2019-06-15T01:06:35.792Z,11.40
2019-06-15T01:07:35.785Z,11.40
2019-06-15T01:08:35.787Z,11.30
2019-06-15T01:09:35.769Z,11.50
2019-06-15T01:10:35.765Z,12.00
2019-06-15T01:11:35.760Z,12.10
2019-06-15T01:12:35.727Z,12.30
2019-06-15T01:13:35.715Z,11.50
2019-06-15T01:14:35.704Z,12.20
2019-06-15T01:15:35.693Z,11.40
2019-06-15T01:16:35.722Z,11.80
2019-06-15T01:17:35.683Z,12.40
2019-06-15T01:18:35.659Z,11.30
2019-06-15T01:19:35.649Z,11.30
2019-06-15T01:20:35.638Z,11.70
2019-06-15T01:21:35.624Z,11.80
2019-06-15T01:22:35.680Z,11.60
2019-06-15T01:23:35.621Z,11.40
2019-06-15T01:24:35.593Z,11.40
2019-06-15T01:25:35.585Z,11.10
2019-06-15T01:26:35.571Z,11.70
2019-06-15T01:27:35.559Z,10.30
2019-06-15T01:28:35.610Z,11.20
2019-06-15T01:29:35.538Z,11.00
2019-06-15T01:30:35.541Z,11.50
2019-06-15T01:31:35.514Z,11.20
2019-06-15T01:32:35.503Z,11.00
2019-06-15T01:33:35.492Z,11.10
2019-06-15T01:34:35.513Z,11.10
2019-06-15T01:35:35.490Z,11.30
2019-06-15T01:36:35.463Z,11.40
2019-06-15T01:37:35.448Z,11.60
2019-06-15T01:38:35.437Z,11.30
2019-06-15T01:39:35.485Z,11.50
2019-06-15T01:40:35.433Z,11.20
2019-06-15T01:41:35.418Z,11.60
2019-06-15T01:42:35.392Z,11.70
2019-06-15T01:43:35.384Z,10.80
2019-06-15T01:44:35.374Z,11.90
2019-06-15T01:45:35.362Z,12.20
2019-06-15T01:46:35.390Z,12.90
2019-06-15T01:47:35.381Z,12.00
2019-06-15T01:48:35.339Z,12.20
2019-06-15T01:49:35.317Z,11.90
2019-06-15T01:50:35.304Z,12.50
2019-06-15T01:51:35.293Z,12.70
2019-06-15T01:52:35.339Z,12.00
2019-06-15T01:53:35.272Z,12.10
2019-06-15T01:54:35.260Z,12.10
2019-06-15T01:55:35.248Z,12.20
2019-06-15T01:56:35.238Z,12.70
2019-06-15T01:57:35.242Z,13.10
2019-06-15T01:58:35.317Z,12.60
2019-06-15T01:59:35.205Z,12.80
2019-06-15T02:00:35.206Z,12.80
2019-06-15T02:01:35.183Z,13.30
2019-06-15T02:02:35.188Z,12.80
2019-06-15T02:03:35.175Z,12.70
2019-06-15T02:04:35.177Z,12.80
2019-06-15T02:05:35.162Z,12.90
2019-06-15T02:06:35.128Z,13.00
2019-06-15T02:07:35.126Z,13.20
2019-06-15T02:08:35.121Z,13.40
2019-06-15T02:09:35.094Z,12.80
2019-06-15T02:10:35.095Z,13.00
2019-06-15T02:11:35.102Z,13.10
2019-06-15T02:12:35.065Z,13.20
2019-06-15T02:13:35.069Z,13.00
2019-06-15T02:14:35.040Z,12.90
2019-06-15T02:15:35.031Z,13.70
2019-06-15T02:16:35.017Z,13.50
2019-06-15T02:17:35.047Z,13.70
2019-06-15T02:18:34.994Z,13.00
2019-06-15T02:19:34.997Z,14.10
2019-06-15T02:20:34.971Z,13.40
2019-06-15T02:21:34.960Z,13.60
2019-06-15T02:22:34.950Z,13.90
2019-06-15T02:23:34.957Z,13.80
2019-06-15T02:24:34.943Z,13.70
2019-06-15T02:25:36.264Z,14.90
2019-06-15T02:26:34.904Z,14.20
2019-06-15T02:27:34.896Z,14.80
2019-06-15T02:28:34.884Z,14.60
2019-06-15T02:29:34.908Z,13.80
2019-06-15T02:30:34.878Z,13.70
2019-06-15T02:31:34.853Z,14.00
2019-06-15T02:32:34.852Z,14.10
2019-06-15T02:33:34.828Z,14.10
2019-06-15T02:34:34.828Z,14.00
2019-06-15T02:35:34.826Z,14.10
2019-06-15T02:36:34.814Z,14.80
2019-06-15T02:37:34.787Z,14.30
2019-06-15T02:38:34.774Z,14.60
2019-06-15T02:39:34.763Z,15.30
2019-06-15T02:40:34.750Z,14.50
2019-06-15T02:41:34.794Z,15.70
2019-06-15T02:42:34.744Z,14.50
2019-06-15T02:43:34.716Z,15.70
2019-06-15T02:44:34.704Z,15.20
2019-06-15T02:45:34.695Z,15.10
2019-06-15T02:46:34.693Z,14.90
2019-06-15T02:47:34.713Z,14.90
2019-06-15T02:48:34.663Z,15.70
2019-06-15T02:49:34.651Z,16.50
2019-06-15T02:50:34.642Z,16.00
2019-06-15T02:51:34.630Z,15.20
2019-06-15T02:52:34.619Z,16.70
2019-06-15T02:53:34.649Z,15.90
2019-06-15T02:54:34.593Z,16.30
2019-06-15T02:55:34.584Z,16.50
2019-06-15T02:56:34.571Z,17.20
2019-06-15T02:57:34.564Z,17.00
2019-06-15T02:58:34.592Z,16.70
2019-06-15T02:59:34.564Z,16.30
2019-06-15T03:00:34.543Z,17.90
2019-06-15T03:01:34.517Z,17.20
2019-06-15T03:02:34.513Z,17.70
2019-06-15T03:03:34.496Z,17.60
2019-06-15T03:04:34.500Z,17.20
2019-06-15T03:05:34.493Z,16.70
2019-06-15T03:06:34.530Z,17.70
2019-06-15T03:07:34.453Z,18.20
2019-06-15T03:08:34.451Z,17.80
2019-06-15T03:09:34.429Z,17.10
2019-06-15T03:10:34.429Z,16.80
2019-06-15T03:11:34.428Z,17.40
2019-06-15T03:12:34.396Z,17.20
2019-06-15T03:13:34.389Z,18.70
2019-06-15T03:14:34.377Z,17.60
2019-06-15T03:15:34.380Z,18.20
2019-06-15T03:16:34.354Z,18.20
2019-06-15T03:17:34.376Z,18.50
2019-06-15T03:18:34.328Z,18.40
2019-06-15T03:19:34.319Z,18.40
2019-06-15T03:20:34.308Z,19.00
2019-06-15T03:21:34.308Z,18.10
2019-06-15T03:22:34.285Z,18.50
2019-06-15T03:23:34.292Z,18.20
2019-06-15T03:24:34.266Z,18.50
2019-06-15T03:25:34.252Z,18.70
2019-06-15T03:26:34.253Z,18.90
2019-06-15T03:27:34.230Z,20.40
2019-06-15T03:28:34.218Z,19.20
2019-06-15T03:29:34.239Z,19.50
2019-06-15T03:30:34.208Z,18.90
2019-06-15T03:31:34.185Z,18.40
2019-06-15T03:32:34.198Z,18.70
2019-06-15T03:33:34.164Z,18.60
2019-06-15T03:34:34.169Z,18.10
2019-06-15T03:35:34.170Z,18.90
2019-06-15T03:36:34.129Z,18.80
2019-06-15T03:37:34.119Z,18.80
2019-06-15T03:38:34.107Z,18.10
2019-06-15T03:39:34.115Z,18.30
2019-06-15T03:40:34.085Z,18.10
2019-06-15T03:41:34.114Z,17.80
2019-06-15T03:42:34.067Z,17.60
2019-06-15T03:43:34.052Z,16.70
2019-06-15T03:44:34.082Z,18.10
2019-06-15T03:45:34.044Z,19.00
2019-06-15T03:46:34.019Z,19.20
2019-06-15T03:47:34.032Z,19.10
2019-06-15T03:48:33.995Z,19.50
2019-06-15T03:49:33.989Z,19.50
2019-06-15T03:50:33.998Z,18.70
2019-06-15T03:51:33.969Z,17.80
2019-06-15T03:52:33.956Z,18.50
2019-06-15T03:53:33.976Z,19.20
2019-06-15T03:54:33.935Z,18.90
2019-06-15T03:55:33.918Z,19.30
2019-06-15T03:56:33.929Z,19.30
2019-06-15T03:57:33.901Z,19.30
2019-06-15T03:58:33.887Z,19.60
2019-06-15T03:59:33.917Z,18.70
2019-06-15T04:00:33.867Z,18.20
2019-06-15T04:01:33.855Z,18.30
2019-06-15T04:02:33.859Z,18.30
2019-06-15T04:03:33.834Z,20.00
2019-06-15T04:04:33.821Z,19.40
2019-06-15T04:05:33.852Z,19.00
2019-06-15T04:06:33.798Z,18.80
2019-06-15T04:07:33.786Z,20.10
2019-06-15T04:08:33.788Z,19.90
2019-06-15T04:09:33.764Z,18.60
2019-06-15T04:10:33.753Z,18.70
2019-06-15T04:11:33.763Z,19.00
2019-06-15T04:12:33.736Z,19.00
2019-06-15T04:13:33.737Z,18.70
2019-06-15T04:14:33.708Z,18.80
2019-06-15T04:15:33.702Z,19.30
2019-06-15T04:16:33.686Z,19.40
2019-06-15T04:17:33.697Z,18.60
2019-06-15T04:18:33.684Z,19.20
2019-06-15T04:19:33.653Z,19.10
2019-06-15T04:20:33.641Z,19.30
2019-06-15T04:21:33.631Z,18.90
2019-06-15T04:22:33.622Z,18.90
2019-06-15T04:23:33.629Z,19.10
2019-06-15T04:24:33.622Z,19.20
2019-06-15T04:25:33.586Z,19.30
2019-06-15T04:26:36.233Z,18.70
2019-06-15T04:27:33.566Z,18.80
2019-06-15T04:28:33.558Z,19.20
2019-06-15T04:29:33.570Z,17.80
2019-06-15T04:30:33.552Z,18.30
2019-06-15T04:31:33.520Z,19.90
2019-06-15T04:32:33.510Z,17.90
2019-06-15T04:33:33.499Z,18.70
2019-06-15T04:34:33.486Z,18.00
2019-06-15T04:35:33.512Z,18.60
2019-06-15T04:36:33.468Z,18.30
2019-06-15T04:37:33.454Z,18.00
2019-06-15T04:38:33.449Z,19.60
2019-06-15T04:39:33.433Z,18.00
2019-06-15T04:40:33.424Z,18.10
2019-06-15T04:41:33.466Z,17.80
2019-06-15T04:42:33.403Z,18.40
2019-06-15T04:43:33.397Z,18.10
2019-06-15T04:44:33.381Z,17.70
2019-06-15T04:45:33.365Z,17.20
2019-06-15T04:46:33.356Z,17.70
2019-06-15T04:47:33.382Z,18.70
2019-06-15T04:48:33.331Z,16.70
2019-06-15T04:49:33.322Z,19.00
2019-06-15T04:50:33.309Z,18.00
2019-06-15T04:51:33.298Z,19.00
2019-06-15T04:52:33.311Z,18.80
2019-06-15T04:53:33.295Z,17.90
2019-06-15T04:54:33.267Z,18.00
2019-06-15T04:55:33.253Z,17.20
2019-06-15T04:56:33.244Z,18.10
2019-06-15T04:57:33.244Z,18.60
2019-06-15T04:58:33.233Z,18.70
2019-06-15T04:59:33.229Z,17.40
2019-06-15T05:00:33.199Z,18.30
2019-06-15T05:01:33.187Z,18.00
2019-06-15T05:02:33.176Z,17.70
2019-06-15T05:03:33.184Z,19.30
2019-06-15T05:04:33.180Z,19.80
2019-06-15T05:05:33.201Z,18.90
2019-06-15T05:06:33.134Z,18.70
2019-06-15T05:07:33.121Z,20.00
2019-06-15T05:08:33.111Z,19.00
2019-06-15T05:09:33.111Z,20.00
2019-06-15T05:10:33.089Z,20.40
2019-06-15T05:11:33.105Z,20.00
2019-06-15T05:12:33.068Z,20.40
2019-06-15T05:13:33.060Z,19.70
2019-06-15T05:14:33.058Z,19.50
2019-06-15T05:15:33.035Z,20.00
2019-06-15T05:16:33.033Z,20.30
2019-06-15T05:17:33.029Z,20.90
2019-06-15T05:18:33.000Z,20.70
2019-06-15T05:19:32.988Z,20.60
2019-06-15T05:20:32.993Z,20.60
2019-06-15T05:21:32.968Z,21.00
2019-06-15T05:22:32.956Z,20.80
2019-06-15T05:23:32.977Z,21.30
2019-06-15T05:24:32.933Z,19.90
2019-06-15T05:25:32.921Z,19.60
2019-06-15T05:26:32.923Z,21.30
2019-06-15T05:27:32.901Z,20.90
2019-06-15T05:28:32.892Z,20.00
2019-06-15T05:29:32.897Z,20.40
2019-06-15T05:30:32.908Z,20.30
2019-06-15T05:31:32.883Z,19.40
2019-06-15T05:32:32.855Z,20.00
2019-06-15T05:33:32.848Z,19.80
2019-06-15T05:34:32.825Z,19.40
2019-06-15T05:35:32.810Z,20.00
2019-06-15T05:36:32.844Z,19.90
2019-06-15T05:37:32.792Z,18.70
2019-06-15T05:38:32.793Z,19.20
2019-06-15T05:39:32.813Z,18.30
2019-06-15T05:40:32.771Z,18.90
2019-06-15T05:41:32.745Z,18.40
2019-06-15T05:42:32.770Z,18.50
2019-06-15T05:43:32.734Z,18.70
2019-06-15T05:44:32.711Z,18.90
2019-06-15T05:45:32.710Z,17.90
2019-06-15T05:46:32.714Z,17.50
2019-06-15T05:47:32.722Z,18.00
2019-06-15T05:48:32.686Z,18.10
2019-06-15T05:49:32.679Z,18.00
2019-06-15T05:50:32.651Z,16.70
2019-06-15T05:51:32.635Z,17.70
2019-06-15T05:52:32.628Z,16.10
2019-06-15T05:53:32.635Z,17.50
2019-06-15T05:54:32.630Z,17.40
2019-06-15T05:55:32.588Z,18.10
2019-06-15T05:56:33.523Z,17.70
2019-06-15T05:57:32.567Z,18.20
2019-06-15T05:58:32.560Z,19.00
2019-06-15T05:59:32.586Z,18.40
2019-06-15T06:00:32.546Z,18.40
2019-06-15T06:01:32.525Z,19.10
2019-06-15T06:02:32.513Z,19.40
2019-06-15T06:03:32.504Z,18.90
2019-06-15T06:04:32.502Z,20.10
2019-06-15T06:05:32.527Z,20.10
2019-06-15T06:06:32.470Z,20.20
2019-06-15T06:07:32.465Z,19.70
2019-06-15T06:08:32.458Z,20.80
2019-06-15T06:09:32.439Z,21.70
2019-06-15T06:10:32.427Z,21.20
2019-06-15T06:11:32.463Z,21.30
2019-06-15T06:12:32.401Z,21.20
2019-06-15T06:13:32.394Z,20.80
2019-06-15T06:14:32.381Z,21.70
2019-06-15T06:15:32.375Z,21.50
2019-06-15T06:16:32.373Z,22.20
2019-06-15T06:17:32.392Z,21.70
2019-06-15T06:18:32.380Z,21.90
2019-06-15T06:19:32.322Z,22.70
2019-06-15T06:20:32.318Z,22.90
2019-06-15T06:21:32.313Z,22.70
2019-06-15T06:22:32.290Z,22.10
2019-06-15T06:23:32.319Z,20.80
2019-06-15T06:24:32.269Z,20.70
2019-06-15T06:25:32.273Z,20.60
2019-06-15T06:26:32.261Z,21.30
2019-06-15T06:27:36.473Z,20.70
2019-06-15T06:28:32.228Z,20.50
2019-06-15T06:29:32.261Z,20.80
2019-06-15T06:30:32.232Z,20.10
2019-06-15T06:31:32.202Z,20.70
2019-06-15T06:32:32.193Z,21.20
2019-06-15T06:33:32.166Z,21.70
2019-06-15T06:34:32.272Z,20.90
2019-06-15T06:35:32.145Z,20.10
2019-06-15T06:36:32.185Z,21.40
2019-06-15T06:37:32.126Z,20.90
2019-06-15T06:38:32.127Z,19.20
2019-06-15T06:39:32.106Z,19.50
2019-06-15T06:40:32.098Z,19.60
2019-06-15T06:41:32.093Z,20.30
2019-06-15T06:42:32.088Z,20.50
2019-06-15T06:43:32.059Z,19.00
2019-06-15T06:44:32.051Z,19.70
2019-06-15T06:45:32.051Z,19.40
2019-06-15T06:46:32.023Z,19.10
2019-06-15T06:47:32.025Z,18.80
2019-06-15T06:48:32.029Z,17.30
2019-06-15T06:49:31.993Z,17.60
2019-06-15T06:50:31.980Z,17.10
2019-06-15T06:51:31.971Z,17.70
2019-06-15T06:52:31.977Z,18.20
2019-06-15T06:53:31.948Z,17.60
2019-06-15T06:54:31.956Z,16.90
2019-06-15T06:55:31.924Z,17.30
2019-06-15T06:56:31.916Z,16.20
2019-06-15T06:57:31.903Z,17.10
2019-06-15T06:58:31.912Z,16.20
2019-06-15T06:59:31.885Z,16.70
2019-06-15T07:00:31.899Z,16.30
2019-06-15T07:01:31.860Z,16.30
2019-06-15T07:02:31.848Z,16.60
2019-06-15T07:03:31.837Z,15.80
2019-06-15T07:04:31.837Z,15.00
2019-06-15T07:05:31.833Z,15.50
2019-06-15T07:06:31.803Z,15.00
2019-06-15T07:07:31.795Z,14.60
2019-06-15T07:08:31.783Z,14.20
2019-06-15T07:09:31.793Z,14.50
2019-06-15T07:10:31.769Z,14.30
2019-06-15T07:11:31.773Z,15.30
2019-06-15T07:12:31.735Z,15.50
2019-06-15T07:13:31.724Z,15.20
2019-06-15T07:14:31.712Z,15.30
2019-06-15T07:15:31.734Z,15.50
2019-06-15T07:16:31.697Z,15.70
2019-06-15T07:17:31.734Z,15.10
2019-06-15T07:18:31.673Z,15.20
2019-06-15T07:19:31.661Z,15.50
2019-06-15T07:20:31.650Z,15.60
2019-06-15T07:21:31.653Z,14.70
2019-06-15T07:22:31.624Z,14.60
2019-06-15T07:23:32.111Z,14.20
2019-06-15T07:24:31.609Z,14.20
2019-06-15T07:25:31.590Z,13.80
2019-06-15T07:26:31.587Z,13.90
2019-06-15T07:27:31.583Z,14.20
2019-06-15T07:28:31.564Z,14.50
2019-06-15T07:29:31.603Z,13.40
2019-06-15T07:30:31.553Z,13.10
2019-06-15T07:31:31.528Z,13.30
2019-06-15T07:32:31.516Z,13.10
2019-06-15T07:33:31.518Z,11.80
2019-06-15T07:34:31.490Z,11.90
2019-06-15T07:35:31.501Z,12.20
2019-06-15T07:36:31.470Z,11.10
2019-06-15T07:37:31.457Z,11.10
2019-06-15T07:38:31.446Z,10.40
2019-06-15T07:39:31.449Z,9.70
2019-06-15T07:40:31.436Z,9.50
2019-06-15T07:41:31.440Z,9.20
2019-06-15T07:42:31.413Z,9.50
2019-06-15T07:43:31.407Z,9.70
2019-06-15T07:44:31.394Z,10.10
2019-06-15T07:45:31.368Z,9.10
2019-06-15T07:46:31.360Z,8.80
2019-06-15T07:47:31.387Z,9.70
2019-06-15T07:48:31.339Z,9.00
2019-06-15T07:49:31.328Z,9.20
2019-06-15T07:50:31.315Z,9.40
2019-06-15T07:51:31.301Z,9.10
2019-06-15T07:52:31.308Z,8.50
2019-06-15T07:53:31.309Z,7.60
2019-06-15T07:54:31.285Z,8.60
2019-06-15T07:55:31.279Z,7.90
2019-06-15T07:56:31.282Z,8.50
2019-06-15T07:57:31.237Z,8.40
2019-06-15T07:58:31.230Z,8.90
2019-06-15T07:59:31.262Z,8.50
2019-06-15T08:00:31.204Z,8.30
2019-06-15T08:01:31.207Z,8.50
2019-06-15T08:02:31.243Z,7.90
2019-06-15T08:03:31.193Z,7.70
2019-06-15T08:04:31.163Z,8.10
2019-06-15T08:05:31.182Z,6.90
2019-06-15T08:06:31.141Z,7.70
2019-06-15T08:07:31.130Z,8.00
2019-06-15T08:08:31.118Z,7.80
2019-06-15T08:09:31.117Z,7.20
2019-06-15T08:10:31.091Z,7.70
2019-06-15T08:11:31.108Z,7.70
2019-06-15T08:12:31.070Z,7.60
2019-06-15T08:13:31.077Z,7.80
2019-06-15T08:14:31.048Z,7.70
2019-06-15T08:15:31.051Z,8.40
2019-06-15T08:16:31.026Z,8.80
2019-06-15T08:17:31.037Z,8.70
2019-06-15T08:18:31.008Z,8.50
2019-06-15T08:19:30.994Z,8.40
2019-06-15T08:20:31.001Z,8.60
2019-06-15T08:21:30.992Z,8.30
2019-06-15T08:22:30.964Z,8.10
2019-06-15T08:23:30.982Z,8.40
2019-06-15T08:24:30.941Z,8.70
2019-06-15T08:25:30.926Z,9.10
2019-06-15T08:26:30.928Z,9.30
2019-06-15T08:27:30.905Z,9.20
2019-06-15T08:28:39.928Z,9.20
2019-06-15T08:29:31.917Z,9.40
2019-06-15T08:30:30.878Z,8.50
2019-06-15T08:31:30.861Z,9.10
2019-06-15T08:32:30.874Z,8.90
2019-06-15T08:33:30.840Z,9.10
2019-06-15T08:34:30.834Z,8.70
2019-06-15T08:35:30.863Z,9.00
2019-06-15T08:36:30.805Z,8.90
2019-06-15T08:37:30.795Z,9.10
2019-06-15T08:38:30.788Z,9.60
2019-06-15T08:39:30.772Z,9.60
2019-06-15T08:40:30.775Z,9.60
2019-06-15T08:41:30.788Z,9.40
2019-06-15T08:42:30.787Z,9.20
2019-06-15T08:43:30.729Z,9.20
2019-06-15T08:44:30.715Z,9.20
2019-06-15T08:45:30.707Z,8.40
2019-06-15T08:46:30.720Z,7.90
2019-06-15T08:47:30.686Z,8.30
2019-06-15T08:48:30.697Z,8.40
2019-06-15T08:49:30.663Z,8.60
2019-06-15T08:50:30.654Z,8.70
2019-06-15T08:51:30.640Z,8.20
2019-06-15T08:52:30.647Z,8.50
2019-06-15T08:53:30.617Z,9.90
2019-06-15T08:54:30.694Z,8.90
2019-06-15T08:55:30.630Z,8.40
2019-06-15T08:56:30.586Z,9.10
2019-06-15T08:57:30.629Z,8.80
2019-06-15T08:58:30.563Z,9.70
2019-06-15T08:59:30.551Z,9.50
2019-06-15T09:00:30.539Z,10.20
2019-06-15T09:01:30.541Z,10.60
2019-06-15T09:02:30.516Z,10.40
2019-06-15T09:03:30.518Z,10.60
2019-06-15T09:04:30.494Z,10.50
2019-06-15T09:05:30.501Z,10.50
2019-06-15T09:06:30.510Z,11.10
2019-06-15T09:07:30.520Z,11.10
2019-06-15T09:08:30.464Z,11.00
2019-06-15T09:09:30.442Z,11.90
2019-06-15T09:10:30.444Z,12.20
2019-06-15T09:11:30.420Z,12.50
2019-06-15T09:12:30.410Z,12.10
2019-06-15T09:13:30.417Z,11.90
2019-06-15T09:14:30.410Z,13.60
2019-06-15T09:15:30.378Z,12.90
2019-06-15T09:16:30.363Z,13.10
2019-06-15T09:17:30.367Z,13.00
2019-06-15T09:18:30.343Z,13.10
2019-06-15T09:19:30.364Z,13.60
2019-06-15T09:20:30.334Z,13.80
2019-06-15T09:21:30.330Z,13.40
2019-06-15T09:22:30.297Z,13.50
2019-06-15T09:23:30.297Z,13.60
2019-06-15T09:24:30.273Z,13.90
2019-06-15T09:25:30.321Z,14.80
2019-06-15T09:26:30.250Z,14.10
2019-06-15T09:27:30.245Z,15.30
2019-06-15T09:28:30.285Z,14.50
2019-06-15T09:29:30.223Z,15.20
2019-06-15T09:30:30.206Z,16.00
2019-06-15T09:31:30.227Z,15.20
2019-06-15T09:32:30.188Z,15.40
2019-06-15T09:33:30.175Z,17.00
2019-06-15T09:34:30.163Z,16.20
2019-06-15T09:35:30.162Z,16.50
2019-06-15T09:36:30.143Z,16.80
2019-06-15T09:37:30.196Z,16.40
2019-06-15T09:38:30.120Z,18.20
2019-06-15T09:39:30.108Z,17.80
2019-06-15T09:40:30.098Z,18.00
2019-06-15T09:41:30.099Z,18.70
2019-06-15T09:42:30.087Z,16.60
2019-06-15T09:43:30.089Z,18.20
2019-06-15T09:44:30.053Z,17.80
2019-06-15T09:45:32.951Z,18.80
2019-06-15T09:46:30.047Z,19.90
2019-06-15T09:47:30.034Z,17.40
2019-06-15T09:48:30.024Z,16.40
2019-06-15T09:49:30.035Z,16.90
2019-06-15T09:50:29.984Z,17.80
2019-06-15T09:51:29.975Z,17.50
2019-06-15T09:52:29.962Z,16.80
2019-06-15T09:53:29.960Z,16.70
2019-06-15T09:54:29.955Z,14.50
2019-06-15T09:55:29.969Z,15.30
2019-06-15T09:56:29.920Z,14.30
2019-06-15T09:57:29.906Z,15.50
2019-06-15T09:58:29.901Z,15.40
2019-06-15T09:59:29.896Z,15.40
2019-06-15T10:00:29.887Z,15.50
2019-06-15T10:01:29.892Z,15.80
2019-06-15T10:02:29.871Z,15.50
2019-06-15T10:03:29.841Z,15.60
2019-06-15T10:04:29.839Z,16.20
2019-06-15T10:05:29.866Z,16.70
2019-06-15T10:06:29.806Z,17.10
2019-06-15T10:07:29.797Z,17.00
2019-06-15T10:08:29.796Z,16.60
2019-06-15T10:09:29.775Z,16.70
2019-06-15T10:10:29.763Z,15.70
2019-06-15T10:11:29.768Z,15.80
2019-06-15T10:12:29.741Z,15.70
2019-06-15T10:13:31.514Z,16.00
2019-06-15T10:14:29.718Z,16.20
2019-06-15T10:15:29.709Z,14.00
2019-06-15T10:16:29.699Z,15.50
2019-06-15T10:17:29.724Z,15.40
2019-06-15T10:18:29.711Z,14.90
2019-06-15T10:19:29.699Z,14.40
2019-06-15T10:20:29.651Z,13.80
2019-06-15T10:21:29.642Z,12.70
2019-06-15T10:22:29.630Z,12.80
2019-06-15T10:23:29.629Z,14.30
2019-06-15T10:24:29.611Z,13.20
2019-06-15T10:25:29.627Z,14.90
2019-06-15T10:26:29.586Z,14.10
2019-06-15T10:27:29.578Z,14.90
2019-06-15T10:28:29.588Z,14.00
2019-06-15T10:29:41.523Z,13.50
2019-06-15T10:30:30.545Z,14.60
2019-06-15T10:31:29.579Z,14.60
2019-06-15T10:32:29.519Z,14.60
2019-06-15T10:33:29.510Z,13.30
2019-06-15T10:34:29.524Z,12.50
2019-06-15T10:35:29.488Z,12.60
2019-06-15T10:36:29.482Z,13.10
2019-06-15T10:37:29.477Z,12.50
2019-06-15T10:38:29.455Z,13.70
2019-06-15T10:39:29.443Z,12.70
2019-06-15T10:40:29.445Z,12.60
2019-06-15T10:41:29.421Z,13.80
2019-06-15T10:42:29.413Z,13.10
2019-06-15T10:43:29.424Z,12.80
2019-06-15T10:44:29.389Z,12.10
2019-06-15T10:45:29.379Z,11.90
2019-06-15T10:46:29.382Z,13.10
2019-06-15T10:47:29.355Z,12.40
2019-06-15T10:48:29.346Z,12.50
2019-06-15T10:49:29.358Z,12.10
2019-06-15T10:50:29.328Z,11.50
2019-06-15T10:51:29.325Z,13.10
2019-06-15T10:52:29.302Z,13.00
2019-06-15T10:53:29.307Z,12.70
2019-06-15T10:54:29.280Z,11.70
2019-06-15T10:55:29.298Z,11.70
2019-06-15T10:56:29.260Z,12.00
2019-06-15T10:57:29.261Z,12.00
2019-06-15T10:58:29.254Z,11.20
2019-06-15T10:59:29.228Z,12.40
2019-06-15T11:00:29.213Z,12.10
2019-06-15T11:01:29.212Z,11.30
2019-06-15T11:02:29.197Z,9.50
2019-06-15T11:03:29.194Z,9.50
2019-06-15T11:04:29.169Z,9.70
2019-06-15T11:05:29.161Z,8.60
2019-06-15T11:06:29.148Z,8.10
2019-06-15T11:07:29.173Z,7.50
2019-06-15T11:08:29.138Z,7.80
2019-06-15T11:09:29.132Z,6.80
2019-06-15T11:10:29.121Z,8.40
2019-06-15T11:11:29.093Z,8.60
2019-06-15T11:12:29.081Z,8.70
2019-06-15T11:13:29.109Z,8.80
2019-06-15T11:14:29.060Z,8.80
2019-06-15T11:15:29.063Z,9.30
2019-06-15T11:16:29.037Z,9.30
2019-06-15T11:17:29.033Z,9.00
2019-06-15T11:18:29.017Z,8.90
2019-06-15T11:19:29.061Z,8.30
2019-06-15T11:20:28.997Z,8.80
2019-06-15T11:21:28.982Z,8.40
2019-06-15T11:22:28.984Z,8.80
2019-06-15T11:23:28.977Z,8.00
2019-06-15T11:24:28.951Z,8.80
2019-06-15T11:25:28.986Z,8.30
2019-06-15T11:26:28.929Z,7.70
2019-06-15T11:27:28.935Z,6.70
2019-06-15T11:28:28.914Z,7.90
2019-06-15T11:29:28.896Z,7.50
2019-06-15T11:30:28.900Z,6.90
2019-06-15T11:31:28.911Z,5.40
2019-06-15T11:32:28.865Z,4.90
2019-06-15T11:33:28.854Z,4.70
2019-06-15T11:34:28.841Z,4.60
2019-06-15T11:35:28.829Z,4.30
2019-06-15T11:36:28.846Z,4.20
2019-06-15T11:37:28.841Z,4.00
2019-06-15T11:38:28.800Z,4.10
2019-06-15T11:39:28.789Z,3.80
2019-06-15T11:40:28.776Z,3.70
2019-06-15T11:41:28.766Z,3.40
2019-06-15T11:42:28.770Z,3.90
2019-06-15T11:43:28.770Z,3.80
2019-06-15T11:44:28.785Z,4.20
2019-06-15T11:45:28.722Z,3.70
2019-06-15T11:46:28.712Z,4.10
2019-06-15T11:47:28.720Z,3.50
2019-06-15T11:48:28.696Z,3.00
2019-06-15T11:49:28.696Z,2.20
2019-06-15T11:50:28.669Z,2.00
2019-06-15T11:51:28.655Z,1.50
2019-06-15T11:52:28.646Z,1.60
2019-06-15T11:53:28.648Z,1.60
2019-06-15T11:54:28.634Z,1.60
2019-06-15T11:55:39.170Z,1.50
2019-06-15T11:56:29.600Z,1.30
2019-06-15T11:57:28.591Z,1.40
2019-06-15T11:58:28.579Z,1.70
2019-06-15T11:59:28.585Z,1.70
2019-06-15T12:00:31.525Z,1.30
2019-06-15T12:01:28.586Z,1.60
2019-06-15T12:02:28.536Z,1.20
2019-06-15T12:03:28.527Z,1.40
2019-06-15T12:04:28.520Z,1.70
2019-06-15T12:05:28.517Z,1.90
2019-06-15T12:06:28.492Z,1.30
2019-06-15T12:07:28.516Z,1.60
2019-06-15T12:08:28.471Z,1.40
2019-06-15T12:09:28.474Z,1.60
2019-06-15T12:10:28.467Z,1.20
2019-06-15T12:11:28.442Z,1.10
2019-06-15T12:12:28.436Z,0.90
2019-06-15T12:13:28.450Z,0.70
2019-06-15T12:14:28.408Z,0.70
2019-06-15T12:15:28.397Z,0.50
2019-06-15T12:16:28.404Z,0.60
2019-06-15T12:17:28.375Z,0.80
2019-06-15T12:18:28.362Z,0.70
2019-06-15T12:19:28.392Z,0.80
2019-06-15T12:20:28.344Z,0.80
2019-06-15T12:21:28.344Z,0.70
2019-06-15T12:22:28.317Z,0.70
2019-06-15T12:23:28.307Z,0.50
2019-06-15T12:24:28.298Z,0.80
2019-06-15T12:25:28.312Z,0.60
2019-06-15T12:26:28.299Z,0.60
2019-06-15T12:27:28.264Z,0.60
2019-06-15T12:28:28.267Z,0.50
2019-06-15T12:29:28.243Z,0.60
2019-06-15T12:30:28.230Z,0.70
2019-06-15T12:31:28.266Z,0.60
2019-06-15T12:32:28.213Z,0.60
2019-06-15T12:33:28.210Z,0.90
2019-06-15T12:34:28.201Z,0.60
2019-06-15T12:35:28.235Z,1.00
2019-06-15T12:36:28.180Z,0.60
2019-06-15T12:37:28.182Z,0.40
2019-06-15T12:38:28.143Z,0.60
2019-06-15T12:39:28.134Z,0.50
2019-06-15T12:40:28.144Z,0.50
2019-06-15T12:41:28.113Z,0.60
2019-06-15T12:42:28.109Z,0.50
2019-06-15T12:43:28.138Z,0.60
2019-06-15T12:44:28.079Z,0.70
2019-06-15T12:45:28.082Z,0.50
2019-06-15T12:46:28.058Z,0.30
2019-06-15T12:47:28.046Z,0.70
2019-06-15T12:48:28.048Z,0.50
2019-06-15T12:49:28.038Z,0.70
2019-06-15T12:50:28.016Z,0.70
2019-06-15T12:51:28.003Z,0.50
2019-06-15T12:52:27.993Z,0.60
2019-06-15T12:53:27.994Z,0.60
2019-06-15T12:54:27.972Z,0.50
2019-06-15T12:55:27.981Z,0.60
2019-06-15T12:56:27.947Z,0.60
2019-06-15T12:57:27.955Z,0.80
2019-06-15T12:58:27.929Z,0.70
2019-06-15T12:59:27.915Z,0.70
2019-06-15T13:00:27.918Z,0.60